createdAt,value
2022-08-18T00:04:36.548Z,4.40
2022-08-18T00:09:36.924Z,5.03
2022-08-18T00:14:29.392Z,4.10
2022-08-18T00:19:45.457Z,4.53
2022-08-18T00:24:35.441Z,4.60
2022-08-18T00:29:29.396Z,8.13
2022-08-18T00:34:21.812Z,4.43
2022-08-18T00:39:14.154Z,5.40
2022-08-18T00:44:06.705Z,4.30
2022-08-18T00:49:00.105Z,4.93
2022-08-18T00:54:07.067Z,4.53
2022-08-18T00:59:06.106Z,4.93
2022-08-18T01:04:30.296Z,5.10
2022-08-18T01:09:23.593Z,5.13
2022-08-18T01:14:16.225Z,5.30
2022-08-18T01:19:26.958Z,6.60
2022-08-18T01:24:46.513Z,4.30
2022-08-18T01:29:42.927Z,5.30
2022-08-18T01:34:35.841Z,5.40
2022-08-18T01:41:12.876Z,5.40
2022-08-18T01:44:41.909Z,6.10
2022-08-18T01:49:34.591Z,4.87
2022-08-18T01:54:30.434Z,4.40
2022-08-18T01:59:22.938Z,5.67
2022-08-18T02:09:30.758Z,5.60
2022-08-18T02:14:27.187Z,4.93
2022-08-18T02:19:19.941Z,6.20
2022-08-18T02:24:12.223Z,5.67
2022-08-18T02:29:04.445Z,5.77
2022-08-18T02:33:57.460Z,5.63
2022-08-18T02:38:54.673Z,5.33
2022-08-18T02:43:52.890Z,5.83
2022-08-18T02:48:48.687Z,4.63
2022-08-18T02:53:43.854Z,6.53
2022-08-18T02:58:36.487Z,5.60
2022-08-18T03:03:28.665Z,4.97
2022-08-18T03:08:20.930Z,6.80
2022-08-18T03:13:13.866Z,5.40
2022-08-18T03:18:06.331Z,8.13
2022-08-18T03:22:58.988Z,5.53
2022-08-18T03:27:52.787Z,5.97
2022-08-18T03:32:45.759Z,5.50
2022-08-18T03:37:38.334Z,5.77
2022-08-18T03:42:30.745Z,7.03
2022-08-18T03:47:23.098Z,6.00
2022-08-18T03:52:15.436Z,6.27
2022-08-18T03:57:12.289Z,5.07
2022-08-18T04:02:05.800Z,5.67
2022-08-18T04:07:05.162Z,5.53
2022-08-18T04:11:59.440Z,6.07
2022-08-18T04:16:52.801Z,8.40
2022-08-18T04:21:46.260Z,5.93
2022-08-18T04:26:46.228Z,5.90
2022-08-18T04:31:41.287Z,5.97
2022-08-18T04:36:35.802Z,6.07
2022-08-18T04:41:29.662Z,5.37
2022-08-18T04:46:24.175Z,7.20
2022-08-18T04:52:34.276Z,7.20
2022-08-18T04:56:36.966Z,8.67
2022-08-18T05:01:31.911Z,7.70
2022-08-18T05:06:26.784Z,13.30
2022-08-18T05:11:19.500Z,18.57
2022-08-18T05:16:16.848Z,13.80
2022-08-18T05:21:14.384Z,14.10
2022-08-18T05:26:06.750Z,16.30
2022-08-18T05:31:00.391Z,10.77
2022-08-18T05:36:04.293Z,9.73
2022-08-18T05:41:13.711Z,9.70
2022-08-18T05:46:09.806Z,10.23
2022-08-18T05:51:11.489Z,11.30
2022-08-18T05:56:25.695Z,10.63
2022-08-18T06:01:27.897Z,8.63
2022-08-18T06:06:29.798Z,10.10
2022-08-18T06:11:22.654Z,13.43
2022-08-18T06:16:34.937Z,8.63
2022-08-18T06:21:50.956Z,7.33
2022-08-18T06:26:58.185Z,7.00
2022-08-18T06:32:06.521Z,4.87
2022-08-18T06:37:11.378Z,5.47
2022-08-18T06:42:06.860Z,6.88
2022-08-18T06:47:08.967Z,9.38
2022-08-18T06:52:21.243Z,8.48
2022-08-18T06:57:52.592Z,6.68
2022-08-18T07:03:04.194Z,6.22
2022-08-18T07:08:10.675Z,8.60
2022-08-18T07:13:26.966Z,6.57
2022-08-18T07:18:28.306Z,6.72
2022-08-18T07:23:31.791Z,6.45
2022-08-18T07:28:28.590Z,5.10
2022-08-18T07:33:26.021Z,5.47
2022-08-18T07:38:49.194Z,6.95
2022-08-18T07:43:54.067Z,5.43
2022-08-18T07:48:47.301Z,9.82
2022-08-18T07:54:04.967Z,11.18
2022-08-18T07:59:22.397Z,6.97
2022-08-18T08:04:26.665Z,6.57
2022-08-18T08:09:52.300Z,5.75
2022-08-18T08:14:47.884Z,6.07
2022-08-18T08:20:19.702Z,5.90
2022-08-18T08:25:47.187Z,9.00
2022-08-18T08:31:35.883Z,8.60
2022-08-18T08:36:30.910Z,7.20
2022-08-18T08:41:34.396Z,6.95
2022-08-18T08:46:31.142Z,10.10
2022-08-18T08:51:38.480Z,6.80
2022-08-18T08:56:36.715Z,7.05
2022-08-18T09:01:48.376Z,8.55
2022-08-18T09:06:55.712Z,7.00
2022-08-18T09:12:44.516Z,8.73
2022-08-18T09:18:51.597Z,6.47
2022-08-18T09:24:59.101Z,6.32
2022-08-18T09:37:32.760Z,7.45
2022-08-18T09:43:40.185Z,6.30
2022-08-18T09:49:47.867Z,6.68
2022-08-18T10:02:28.380Z,6.88
2022-08-18T10:08:37.020Z,9.68
2022-08-18T10:14:50.044Z,6.60
2022-08-18T10:20:59.780Z,6.03
2022-08-18T10:27:06.749Z,10.75
2022-08-18T10:33:21.970Z,7.30
2022-08-18T10:39:31.479Z,11.07
2022-08-18T10:46:13.127Z,6.00
2022-08-18T10:52:15.689Z,7.88
2022-08-18T10:58:28.247Z,11.52
2022-08-18T11:11:27.384Z,5.38
2022-08-18T11:16:29.313Z,9.30
2022-08-18T11:21:44.405Z,16.05
2022-08-18T11:32:39.529Z,14.55
2022-08-18T11:38:12.463Z,9.57
2022-08-18T11:43:15.290Z,10.95
2022-08-18T11:48:10.541Z,10.32
2022-08-18T11:53:26.553Z,6.28
2022-08-18T11:58:50.511Z,6.93
2022-08-18T12:03:49.205Z,10.40
2022-08-18T12:08:56.565Z,9.32
2022-08-18T12:14:32.523Z,11.03
2022-08-18T12:19:30.905Z,9.97
2022-08-18T12:24:37.003Z,6.27
2022-08-18T12:29:36.592Z,9.57
2022-08-18T12:34:35.205Z,6.80
2022-08-18T12:39:30.635Z,10.13
2022-08-18T12:44:27.317Z,7.60
2022-08-18T12:49:22.259Z,8.45
2022-08-18T12:54:14.977Z,10.43
2022-08-18T12:59:10.033Z,5.25
2022-08-18T13:04:13.059Z,14.88
2022-08-18T13:09:16.386Z,9.82
2022-08-18T13:14:18.685Z,18.67
2022-08-18T13:19:11.510Z,12.57
2022-08-18T13:24:05.351Z,6.53
2022-08-18T13:29:02.705Z,6.43
2022-08-18T13:33:59.919Z,16.45
2022-08-18T13:38:54.851Z,9.75
2022-08-18T13:43:49.774Z,14.85
2022-08-18T13:48:42.164Z,7.60
2022-08-18T13:53:50.446Z,12.98
2022-08-18T13:58:53.087Z,12.13
2022-08-18T14:03:47.153Z,11.82
2022-08-18T14:08:40.607Z,11.27
2022-08-18T14:13:38.196Z,8.75
2022-08-18T14:18:36.004Z,14.20
2022-08-18T14:23:53.432Z,13.00
2022-08-18T14:28:47.697Z,9.13
2022-08-18T14:33:50.526Z,10.82
2022-08-18T14:38:44.384Z,7.97
2022-08-18T14:43:51.819Z,14.95
2022-08-18T14:48:50.533Z,6.50
2022-08-18T14:53:44.012Z,8.90
2022-08-18T14:58:37.621Z,10.88
2022-08-18T15:03:35.763Z,7.13
2022-08-18T15:08:29.255Z,7.82
2022-08-18T15:13:26.387Z,8.15
2022-08-18T15:18:22.739Z,8.17
2022-08-18T15:23:33.640Z,8.60
2022-08-18T15:28:27.633Z,8.60
2022-08-18T15:33:23.632Z,7.50
2022-08-18T15:38:22.480Z,10.97
2022-08-18T15:43:18.196Z,7.67
2022-08-18T15:48:12.510Z,10.70
2022-08-18T15:53:07.918Z,9.73
2022-08-18T15:58:02.257Z,15.17
2022-08-18T16:03:00.153Z,11.00
2022-08-18T16:07:56.835Z,7.27
2022-08-18T16:12:50.320Z,9.90
2022-08-18T16:17:43.333Z,9.47
2022-08-18T16:22:40.422Z,9.63
2022-08-18T16:27:34.502Z,8.43
2022-08-18T16:32:27.001Z,8.17
2022-08-18T16:37:20.190Z,8.10
2022-08-18T16:42:12.910Z,9.30
2022-08-18T16:47:06.707Z,14.03
2022-08-18T16:52:02.344Z,7.40
2022-08-18T16:56:54.768Z,7.97
2022-08-18T17:02:05.723Z,8.23
2022-08-18T17:06:58.202Z,7.47
2022-08-18T17:11:52.370Z,9.17
2022-08-18T17:16:46.457Z,8.03
2022-08-18T17:21:38.971Z,7.80
2022-08-18T17:26:38.669Z,8.53
2022-08-18T17:31:36.730Z,7.60
2022-08-18T17:36:37.245Z,9.10
2022-08-18T17:41:31.685Z,8.17
2022-08-18T17:46:29.048Z,8.17
2022-08-18T17:51:43.387Z,11.77
2022-08-18T17:56:50.031Z,8.13
2022-08-18T18:01:43.942Z,8.73
2022-08-18T18:06:48.231Z,7.73
2022-08-18T18:11:46.295Z,9.63
2022-08-18T18:16:38.936Z,7.83
2022-08-18T18:22:00.830Z,9.87
2022-08-18T18:26:48.447Z,8.20
2022-08-18T18:31:44.574Z,12.37
2022-08-18T18:36:43.077Z,11.37
2022-08-18T18:41:39.694Z,12.33
2022-08-18T18:46:39.172Z,11.10
2022-08-18T18:52:01.546Z,14.60
2022-08-18T18:56:57.150Z,16.40
2022-08-18T19:02:35.282Z,18.27
2022-08-18T19:07:33.642Z,17.87
2022-08-18T19:13:01.271Z,13.03
2022-08-18T19:18:05.248Z,15.70
2022-08-18T19:23:34.162Z,13.50
2022-08-18T19:29:13.238Z,13.93
2022-08-18T19:34:18.617Z,13.23
2022-08-18T19:39:21.766Z,14.40
2022-08-18T19:44:25.753Z,14.10
2022-08-18T19:49:36.622Z,15.23
2022-08-18T19:54:34.780Z,12.63
2022-08-18T19:59:48.857Z,13.43
2022-08-18T20:05:09.343Z,11.93
2022-08-18T20:10:20.700Z,11.67
2022-08-18T20:15:17.210Z,12.83
2022-08-18T20:20:16.456Z,11.63
2022-08-18T20:25:48.251Z,14.57
2022-08-18T20:30:43.344Z,12.77
2022-08-18T20:35:58.256Z,11.83
2022-08-18T20:40:52.233Z,14.97
2022-08-18T20:45:46.217Z,11.97
2022-08-18T20:50:45.967Z,11.83
2022-08-18T20:55:53.357Z,11.40
2022-08-18T21:00:50.251Z,11.00
2022-08-18T21:05:45.184Z,11.20
2022-08-18T21:10:37.645Z,12.70
2022-08-18T21:15:35.712Z,11.23
2022-08-18T21:20:29.288Z,11.67
2022-08-18T21:25:24.007Z,12.10
2022-08-18T21:30:21.594Z,10.57
2022-08-18T21:35:34.023Z,12.87
2022-08-18T21:40:49.962Z,11.20
2022-08-18T21:45:47.954Z,11.67
2022-08-18T21:51:36.312Z,11.43
2022-08-18T21:57:43.835Z,11.37
2022-08-18T22:03:50.838Z,11.87
2022-08-18T22:09:58.083Z,11.47
2022-08-18T22:16:09.946Z,11.17
2022-08-18T22:22:17.071Z,10.83
2022-08-18T22:28:24.068Z,10.93
2022-08-18T22:34:34.318Z,11.47
2022-08-18T22:40:41.563Z,13.20
2022-08-18T22:46:48.721Z,12.97
2022-08-18T22:52:59.584Z,12.80
2022-08-18T22:59:15.549Z,13.63
2022-08-18T23:05:24.283Z,13.37
2022-08-18T23:11:32.192Z,16.07
2022-08-18T23:17:39.296Z,13.63
2022-08-18T23:23:46.347Z,14.20
2022-08-18T23:29:53.629Z,13.47
2022-08-18T23:36:19.502Z,12.50
2022-08-18T23:42:26.843Z,17.93
2022-08-18T23:47:38.700Z,12.20
2022-08-18T23:52:31.298Z,12.57
2022-08-18T23:57:23.627Z,12.47
